Shannon, Alabama
Current Conditions -  °F | °C
As of 3:53 AM on Thursday 27 Nov 2014 (Local Time) from KBHM Reporting Station
Overcast Overcast  
Wind Chill: 37°   Ceiling: 6500
Heat Index: 40°   Visibility: 10mi
Dew Point: 31°   Wind: 5mph
Humidity: 70%   Direction: 270°W
Pressure: 30.24"   Gusts: NA
Location:  33.41°N, 86.87°W
Report Text: KBHM 270953Z 27004KT 10SM OVC065 04/M01 A3024 RMK AO2 SLP240 T00441006
Loading
Personal Weather Stations






























Interactive Weather Map New forecast layout! Learn more

10-Day Weather Forecast

Advertisements
Track Severe Weather on mobile